sensor_id;sensor_type;location;lat;lon;timestamp;P1;durP1;ratioP1;P2;durP2;ratioP2
50319;SDS011;36226;53.464;9.852;2023-04-15T05:04:48;15.20;;;8.35;;
50319;SDS011;36226;53.464;9.852;2023-04-15T05:07:15;15.10;;;8.48;;
50319;SDS011;36226;53.464;9.852;2023-04-15T05:09:41;17.73;;;9.52;;
50319;SDS011;36226;53.464;9.852;2023-04-15T05:12:07;16.58;;;9.00;;
50319;SDS011;36226;53.464;9.852;2023-04-15T06:51:33;37.05;;;18.25;;
50319;SDS011;36226;53.464;9.852;2023-04-15T06:54:19;36.92;;;17.00;;
50319;SDS011;36226;53.464;9.852;2023-04-15T07:20:58;48.92;;;22.75;;
50319;SDS011;36226;53.464;9.852;2023-04-15T07:23:24;44.90;;;22.70;;
50319;SDS011;36226;53.464;9.852;2023-04-15T07:25:49;41.80;;;21.50;;
50319;SDS011;36226;53.464;9.852;2023-04-15T07:28:16;48.22;;;21.85;;
50319;SDS011;36226;53.464;9.852;2023-04-15T07:30:41;43.35;;;22.25;;
50319;SDS011;36226;53.464;9.852;2023-04-15T07:33:06;48.78;;;23.27;;
50319;SDS011;36226;53.464;9.852;2023-04-15T07:35:32;47.22;;;23.17;;
50319;SDS011;36226;53.464;9.852;2023-04-15T07:37:57;44.78;;;23.40;;
50319;SDS011;36226;53.464;9.852;2023-04-15T07:40:22;47.97;;;24.48;;
50319;SDS011;36226;53.464;9.852;2023-04-15T07:42:48;46.83;;;23.60;;
50319;SDS011;36226;53.464;9.852;2023-04-15T07:45:14;49.63;;;23.65;;
50319;SDS011;36226;53.464;9.852;2023-04-15T07:47:40;49.10;;;24.15;;
50319;SDS011;36226;53.464;9.852;2023-04-15T07:50:06;49.40;;;24.70;;
50319;SDS011;36226;53.464;9.852;2023-04-15T07:52:33;43.00;;;21.60;;
50319;SDS011;36226;53.464;9.852;2023-04-15T07:55:03;44.15;;;22.83;;
50319;SDS011;36226;53.464;9.852;2023-04-15T07:57:32;47.65;;;24.42;;
50319;SDS011;36226;53.464;9.852;2023-04-15T07:59:59;48.50;;;23.75;;
50319;SDS011;36226;53.464;9.852;2023-04-15T08:02:24;49.88;;;25.40;;
50319;SDS011;36226;53.464;9.852;2023-04-15T08:04:49;51.67;;;24.80;;
50319;SDS011;36226;53.464;9.852;2023-04-15T08:07:15;56.38;;;26.40;;
50319;SDS011;36226;53.464;9.852;2023-04-15T08:09:41;47.28;;;24.00;;
50319;SDS011;36226;53.464;9.852;2023-04-15T08:12:06;53.95;;;25.92;;
50319;SDS011;36226;53.464;9.852;2023-04-15T08:14:33;50.83;;;25.05;;
50319;SDS011;36226;53.464;9.852;2023-04-15T08:16:59;56.72;;;26.33;;
50319;SDS011;36226;53.464;9.852;2023-04-15T08:19:24;56.28;;;25.15;;
50319;SDS011;36226;53.464;9.852;2023-04-15T08:21:50;54.28;;;25.67;;
50319;SDS011;36226;53.464;9.852;2023-04-15T08:24:15;50.97;;;25.23;;
50319;SDS011;36226;53.464;9.852;2023-04-15T08:26:41;51.75;;;25.02;;
50319;SDS011;36226;53.464;9.852;2023-04-15T08:29:06;51.38;;;24.88;;
50319;SDS011;36226;53.464;9.852;2023-04-15T08:31:32;52.95;;;25.58;;
50319;SDS011;36226;53.464;9.852;2023-04-15T08:33:57;51.65;;;26.45;;
50319;SDS011;36226;53.464;9.852;2023-04-15T08:36:23;51.55;;;26.52;;
50319;SDS011;36226;53.464;9.852;2023-04-15T08:38:49;55.78;;;27.75;;
50319;SDS011;36226;53.464;9.852;2023-04-15T08:41:17;54.47;;;27.00;;
50319;SDS011;36226;53.464;9.852;2023-04-15T08:43:48;56.05;;;27.40;;
50319;SDS011;36226;53.464;9.852;2023-04-15T08:46:23;53.17;;;26.88;;
50319;SDS011;36226;53.464;9.852;2023-04-15T08:48:48;57.40;;;27.88;;
50319;SDS011;36226;53.464;9.852;2023-04-15T08:51:14;62.70;;;27.83;;
50319;SDS011;36226;53.464;9.852;2023-04-15T08:53:42;59.03;;;27.00;;
50319;SDS011;36226;53.464;9.852;2023-04-15T08:56:08;51.80;;;27.08;;
50319;SDS011;36226;53.464;9.852;2023-04-15T08:58:37;56.78;;;26.35;;
50319;SDS011;36226;53.464;9.852;2023-04-15T09:01:02;53.60;;;27.75;;
50319;SDS011;36226;53.464;9.852;2023-04-15T09:03:28;59.97;;;28.10;;
50319;SDS011;36226;53.464;9.852;2023-04-15T09:05:54;51.55;;;26.35;;
50319;SDS011;36226;53.464;9.852;2023-04-15T09:08:20;63.75;;;29.42;;
50319;SDS011;36226;53.464;9.852;2023-04-15T09:10:46;60.33;;;29.05;;
50319;SDS011;36226;53.464;9.852;2023-04-15T09:13:11;63.97;;;29.27;;
50319;SDS011;36226;53.464;9.852;2023-04-15T09:15:37;63.88;;;27.67;;
50319;SDS011;36226;53.464;9.852;2023-04-15T09:18:02;56.60;;;28.42;;
50319;SDS011;36226;53.464;9.852;2023-04-15T09:20:28;53.53;;;26.50;;
50319;SDS011;36226;53.464;9.852;2023-04-15T09:22:54;57.83;;;27.92;;
50319;SDS011;36226;53.464;9.852;2023-04-15T09:27:52;61.83;;;30.08;;
50319;SDS011;36226;53.464;9.852;2023-04-15T09:30:27;61.38;;;30.45;;
50319;SDS011;36226;53.464;9.852;2023-04-15T10:10:05;55.92;;;26.38;;
50319;SDS011;36226;53.464;9.852;2023-04-15T10:12:31;57.92;;;28.42;;
50319;SDS011;36226;53.464;9.852;2023-04-15T10:14:58;52.03;;;27.30;;
50319;SDS011;36226;53.464;9.852;2023-04-15T10:17:25;53.05;;;27.35;;
50319;SDS011;36226;53.464;9.852;2023-04-15T10:19:53;55.65;;;27.27;;
50319;SDS011;36226;53.464;9.852;2023-04-15T10:22:19;59.67;;;27.67;;
50319;SDS011;36226;53.464;9.852;2023-04-15T10:24:44;52.47;;;26.58;;
50319;SDS011;36226;53.464;9.852;2023-04-15T10:27:11;58.28;;;27.70;;
50319;SDS011;36226;53.464;9.852;2023-04-15T10:29:37;51.17;;;25.15;;
50319;SDS011;36226;53.464;9.852;2023-04-15T10:32:03;55.63;;;28.15;;
50319;SDS011;36226;53.464;9.852;2023-04-15T10:34:28;51.35;;;27.08;;
50319;SDS011;36226;53.464;9.852;2023-04-15T10:36:54;51.25;;;25.92;;
50319;SDS011;36226;53.464;9.852;2023-04-15T10:44:58;46.88;;;25.30;;
50319;SDS011;36226;53.464;9.852;2023-04-15T10:47:27;45.92;;;25.33;;
50319;SDS011;36226;53.464;9.852;2023-04-15T10:49:56;43.85;;;24.10;;
50319;SDS011;36226;53.464;9.852;2023-04-15T10:52:24;48.08;;;24.92;;
50319;SDS011;36226;53.464;9.852;2023-04-15T10:57:38;42.53;;;24.85;;
50319;SDS011;36226;53.464;9.852;2023-04-15T11:02:51;45.35;;;25.80;;
50319;SDS011;36226;53.464;9.852;2023-04-15T11:08:08;46.72;;;26.00;;
50319;SDS011;36226;53.464;9.852;2023-04-15T11:15:41;43.28;;;23.70;;
50319;SDS011;36226;53.464;9.852;2023-04-15T11:18:09;44.67;;;24.23;;
50319;SDS011;36226;53.464;9.852;2023-04-15T11:20:35;41.80;;;23.95;;
50319;SDS011;36226;53.464;9.852;2023-04-15T11:23:01;39.55;;;23.23;;
50319;SDS011;36226;53.464;9.852;2023-04-15T11:25:27;37.88;;;22.90;;
50319;SDS011;36226;53.464;9.852;2023-04-15T11:27:54;41.45;;;22.98;;
50319;SDS011;36226;53.464;9.852;2023-04-15T11:30:24;39.50;;;22.42;;
50319;SDS011;36226;53.464;9.852;2023-04-15T11:32:51;37.05;;;21.67;;
50319;SDS011;36226;53.464;9.852;2023-04-15T11:35:18;37.30;;;21.65;;
50319;SDS011;36226;53.464;9.852;2023-04-15T11:37:44;38.00;;;22.17;;
50319;SDS011;36226;53.464;9.852;2023-04-15T11:40:10;34.97;;;20.58;;
50319;SDS011;36226;53.464;9.852;2023-04-15T11:42:36;34.53;;;21.00;;
50319;SDS011;36226;53.464;9.852;2023-04-15T11:45:08;33.13;;;19.88;;
50319;SDS011;36226;53.464;9.852;2023-04-15T11:47:35;33.58;;;20.60;;
50319;SDS011;36226;53.464;9.852;2023-04-15T11:50:21;31.77;;;19.67;;
50319;SDS011;36226;53.464;9.852;2023-04-15T11:52:57;30.80;;;19.20;;
50319;SDS011;36226;53.464;9.852;2023-04-15T11:55:24;31.33;;;20.20;;
50319;SDS011;36226;53.464;9.852;2023-04-15T11:58:04;33.75;;;18.58;;
50319;SDS011;36226;53.464;9.852;2023-04-15T12:00:58;26.27;;;16.67;;
50319;SDS011;36226;53.464;9.852;2023-04-15T12:03:25;23.38;;;15.48;;
50319;SDS011;36226;53.464;9.852;2023-04-15T12:09:06;22.08;;;14.20;;
50319;SDS011;36226;53.464;9.852;2023-04-15T12:11:39;17.73;;;12.35;;
50319;SDS011;36226;53.464;9.852;2023-04-15T12:16:56;18.35;;;11.95;;
50319;SDS011;36226;53.464;9.852;2023-04-15T12:19:24;15.55;;;11.10;;
50319;SDS011;36226;53.464;9.852;2023-04-15T12:21:56;17.42;;;11.45;;
50319;SDS011;36226;53.464;9.852;2023-04-15T12:24:26;17.58;;;11.75;;
50319;SDS011;36226;53.464;9.852;2023-04-15T12:26:52;16.20;;;11.35;;
50319;SDS011;36226;53.464;9.852;2023-04-15T12:29:19;16.60;;;11.55;;
50319;SDS011;36226;53.464;9.852;2023-04-15T12:31:46;17.50;;;11.40;;
50319;SDS011;36226;53.464;9.852;2023-04-15T12:34:13;15.18;;;10.45;;
50319;SDS011;36226;53.464;9.852;2023-04-15T12:36:38;15.10;;;10.88;;
50319;SDS011;36226;53.464;9.852;2023-04-15T12:39:04;16.45;;;11.48;;
50319;SDS011;36226;53.464;9.852;2023-04-15T12:41:30;14.73;;;10.77;;
50319;SDS011;36226;53.464;9.852;2023-04-15T12:43:56;14.55;;;9.95;;
50319;SDS011;36226;53.464;9.852;2023-04-15T12:46:22;12.75;;;10.18;;
50319;SDS011;36226;53.464;9.852;2023-04-15T12:48:47;13.70;;;9.75;;
50319;SDS011;36226;53.464;9.852;2023-04-15T12:51:13;14.90;;;10.00;;
50319;SDS011;36226;53.464;9.852;2023-04-15T12:53:38;13.07;;;9.77;;
50319;SDS011;36226;53.464;9.852;2023-04-15T12:56:04;13.00;;;9.90;;
50319;SDS011;36226;53.464;9.852;2023-04-15T12:58:30;15.13;;;10.00;;
50319;SDS011;36226;53.464;9.852;2023-04-15T13:00:56;14.20;;;9.70;;
50319;SDS011;36226;53.464;9.852;2023-04-15T13:03:21;15.35;;;9.73;;
50319;SDS011;36226;53.464;9.852;2023-04-15T13:05:46;15.02;;;9.60;;
50319;SDS011;36226;53.464;9.852;2023-04-15T13:08:12;14.20;;;9.48;;
50319;SDS011;36226;53.464;9.852;2023-04-15T13:10:37;14.93;;;9.60;;
50319;SDS011;36226;53.464;9.852;2023-04-15T13:13:03;11.80;;;9.38;;
50319;SDS011;36226;53.464;9.852;2023-04-15T13:15:29;16.42;;;9.45;;
50319;SDS011;36226;53.464;9.852;2023-04-15T13:17:54;16.30;;;9.40;;
50319;SDS011;36226;53.464;9.852;2023-04-15T13:20:20;11.65;;;8.48;;
50319;SDS011;36226;53.464;9.852;2023-04-15T13:22:46;12.07;;;8.88;;
50319;SDS011;36226;53.464;9.852;2023-04-15T13:25:11;13.40;;;8.88;;
50319;SDS011;36226;53.464;9.852;2023-04-15T13:27:37;14.70;;;9.45;;
50319;SDS011;36226;53.464;9.852;2023-04-15T13:30:02;12.95;;;9.10;;
50319;SDS011;36226;53.464;9.852;2023-04-15T13:32:29;13.90;;;9.07;;
50319;SDS011;36226;53.464;9.852;2023-04-15T13:34:54;15.55;;;8.95;;
50319;SDS011;36226;53.464;9.852;2023-04-15T13:37:21;14.23;;;9.52;;
50319;SDS011;36226;53.464;9.852;2023-04-15T13:39:50;15.07;;;9.35;;
50319;SDS011;36226;53.464;9.852;2023-04-15T13:42:16;13.35;;;8.88;;
50319;SDS011;36226;53.464;9.852;2023-04-15T13:44:41;13.02;;;8.95;;
50319;SDS011;36226;53.464;9.852;2023-04-15T13:47:06;13.20;;;8.60;;
50319;SDS011;36226;53.464;9.852;2023-04-15T13:49:32;13.00;;;8.88;;
50319;SDS011;36226;53.464;9.852;2023-04-15T13:51:57;13.85;;;9.05;;
50319;SDS011;36226;53.464;9.852;2023-04-15T13:54:23;14.48;;;9.55;;
50319;SDS011;36226;53.464;9.852;2023-04-15T13:56:48;14.07;;;9.40;;
50319;SDS011;36226;53.464;9.852;2023-04-15T13:59:13;15.73;;;9.73;;
50319;SDS011;36226;53.464;9.852;2023-04-15T14:01:39;14.93;;;8.75;;
50319;SDS011;36226;53.464;9.852;2023-04-15T14:04:05;12.23;;;8.60;;
50319;SDS011;36226;53.464;9.852;2023-04-15T14:06:30;11.27;;;8.30;;
50319;SDS011;36226;53.464;9.852;2023-04-15T14:08:56;14.18;;;8.00;;
50319;SDS011;36226;53.464;9.852;2023-04-15T14:11:21;10.98;;;8.40;;
50319;SDS011;36226;53.464;9.852;2023-04-15T14:13:46;10.43;;;7.43;;
50319;SDS011;36226;53.464;9.852;2023-04-15T14:16:12;12.80;;;8.05;;
50319;SDS011;36226;53.464;9.852;2023-04-15T14:18:38;11.10;;;8.07;;
50319;SDS011;36226;53.464;9.852;2023-04-15T14:21:04;12.95;;;8.18;;
50319;SDS011;36226;53.464;9.852;2023-04-15T14:23:30;9.52;;;7.80;;
50319;SDS011;36226;53.464;9.852;2023-04-15T14:25:55;12.45;;;7.65;;
50319;SDS011;36226;53.464;9.852;2023-04-15T14:28:23;10.32;;;7.57;;
50319;SDS011;36226;53.464;9.852;2023-04-15T14:30:48;14.20;;;7.43;;
50319;SDS011;36226;53.464;9.852;2023-04-15T14:33:14;10.25;;;6.80;;
50319;SDS011;36226;53.464;9.852;2023-04-15T14:35:39;11.30;;;6.80;;
50319;SDS011;36226;53.464;9.852;2023-04-15T14:38:04;8.70;;;6.82;;
50319;SDS011;36226;53.464;9.852;2023-04-15T14:40:32;9.52;;;6.50;;
50319;SDS011;36226;53.464;9.852;2023-04-15T14:42:57;8.55;;;6.43;;
50319;SDS011;36226;53.464;9.852;2023-04-15T14:45:23;9.52;;;6.55;;
50319;SDS011;36226;53.464;9.852;2023-04-15T14:47:48;9.95;;;6.63;;
50319;SDS011;36226;53.464;9.852;2023-04-15T14:50:14;12.95;;;7.38;;
50319;SDS011;36226;53.464;9.852;2023-04-15T14:52:39;10.43;;;7.20;;
50319;SDS011;36226;53.464;9.852;2023-04-15T14:55:05;9.15;;;6.38;;
50319;SDS011;36226;53.464;9.852;2023-04-15T14:57:32;9.65;;;7.20;;
50319;SDS011;36226;53.464;9.852;2023-04-15T14:59:57;11.10;;;7.07;;
50319;SDS011;36226;53.464;9.852;2023-04-15T15:02:23;13.48;;;7.43;;
50319;SDS011;36226;53.464;9.852;2023-04-15T15:04:48;11.32;;;7.35;;
50319;SDS011;36226;53.464;9.852;2023-04-15T15:07:14;8.93;;;6.93;;
50319;SDS011;36226;53.464;9.852;2023-04-15T15:09:39;8.82;;;6.63;;
50319;SDS011;36226;53.464;9.852;2023-04-15T15:12:05;10.90;;;6.70;;
50319;SDS011;36226;53.464;9.852;2023-04-15T15:14:30;8.77;;;6.78;;
50319;SDS011;36226;53.464;9.852;2023-04-15T15:16:56;9.40;;;6.78;;
50319;SDS011;36226;53.464;9.852;2023-04-15T15:19:21;12.35;;;7.65;;
50319;SDS011;36226;53.464;9.852;2023-04-15T15:21:47;8.35;;;6.55;;
50319;SDS011;36226;53.464;9.852;2023-04-15T15:24:13;9.43;;;7.15;;
50319;SDS011;36226;53.464;9.852;2023-04-15T15:26:38;10.45;;;7.32;;
50319;SDS011;36226;53.464;9.852;2023-04-15T15:29:04;11.48;;;6.90;;
50319;SDS011;36226;53.464;9.852;2023-04-15T15:31:29;10.85;;;6.05;;
50319;SDS011;36226;53.464;9.852;2023-04-15T15:33:54;14.38;;;6.40;;
50319;SDS011;36226;53.464;9.852;2023-04-15T15:36:20;10.73;;;6.20;;
50319;SDS011;36226;53.464;9.852;2023-04-15T15:38:45;10.55;;;6.22;;
50319;SDS011;36226;53.464;9.852;2023-04-15T15:41:11;17.30;;;6.80;;
50319;SDS011;36226;53.464;9.852;2023-04-15T15:43:36;12.85;;;7.55;;
50319;SDS011;36226;53.464;9.852;2023-04-15T15:46:02;9.05;;;6.55;;
50319;SDS011;36226;53.464;9.852;2023-04-15T15:48:27;212.48;;;18.13;;
50319;SDS011;36226;53.464;9.852;2023-04-15T15:50:53;9.38;;;6.18;;
50319;SDS011;36226;53.464;9.852;2023-04-15T15:53:18;8.85;;;6.40;;
50319;SDS011;36226;53.464;9.852;2023-04-15T15:55:46;9.35;;;6.63;;
50319;SDS011;36226;53.464;9.852;2023-04-15T15:58:12;10.18;;;7.53;;
50319;SDS011;36226;53.464;9.852;2023-04-15T16:00:38;9.00;;;6.55;;
50319;SDS011;36226;53.464;9.852;2023-04-15T16:03:03;17.98;;;7.72;;
50319;SDS011;36226;53.464;9.852;2023-04-15T16:05:28;10.63;;;6.82;;
50319;SDS011;36226;53.464;9.852;2023-04-15T16:07:54;12.27;;;7.43;;
50319;SDS011;36226;53.464;9.852;2023-04-15T16:10:19;12.25;;;7.63;;
50319;SDS011;36226;53.464;9.852;2023-04-15T16:12:45;10.52;;;7.43;;
50319;SDS011;36226;53.464;9.852;2023-04-15T16:15:10;11.23;;;7.03;;
50319;SDS011;36226;53.464;9.852;2023-04-15T16:17:36;11.07;;;7.03;;
50319;SDS011;36226;53.464;9.852;2023-04-15T16:20:01;9.88;;;7.57;;
50319;SDS011;36226;53.464;9.852;2023-04-15T16:22:29;11.60;;;8.05;;
50319;SDS011;36226;53.464;9.852;2023-04-15T16:24:55;10.10;;;7.97;;
50319;SDS011;36226;53.464;9.852;2023-04-15T16:27:21;11.27;;;7.45;;
50319;SDS011;36226;53.464;9.852;2023-04-15T16:29:46;11.32;;;7.65;;
50319;SDS011;36226;53.464;9.852;2023-04-15T16:32:11;12.32;;;8.65;;
50319;SDS011;36226;53.464;9.852;2023-04-15T16:34:37;11.93;;;8.02;;
50319;SDS011;36226;53.464;9.852;2023-04-15T16:37:04;12.48;;;8.40;;
50319;SDS011;36226;53.464;9.852;2023-04-15T16:39:30;11.32;;;7.90;;
50319;SDS011;36226;53.464;9.852;2023-04-15T16:41:55;10.98;;;7.80;;
50319;SDS011;36226;53.464;9.852;2023-04-15T16:44:21;12.50;;;8.32;;
50319;SDS011;36226;53.464;9.852;2023-04-15T16:46:47;11.98;;;8.60;;
50319;SDS011;36226;53.464;9.852;2023-04-15T16:49:12;11.35;;;8.80;;
50319;SDS011;36226;53.464;9.852;2023-04-15T16:51:37;12.02;;;7.90;;
50319;SDS011;36226;53.464;9.852;2023-04-15T16:54:03;11.48;;;8.57;;
50319;SDS011;36226;53.464;9.852;2023-04-15T16:56:28;12.80;;;8.20;;
50319;SDS011;36226;53.464;9.852;2023-04-15T16:58:54;11.68;;;8.57;;
50319;SDS011;36226;53.464;9.852;2023-04-15T17:01:19;13.25;;;8.98;;
50319;SDS011;36226;53.464;9.852;2023-04-15T17:03:45;14.38;;;9.10;;
50319;SDS011;36226;53.464;9.852;2023-04-15T17:06:12;12.52;;;8.98;;
50319;SDS011;36226;53.464;9.852;2023-04-15T17:08:38;15.43;;;10.63;;
50319;SDS011;36226;53.464;9.852;2023-04-15T17:11:04;12.70;;;9.60;;
50319;SDS011;36226;53.464;9.852;2023-04-15T17:13:30;15.35;;;10.02;;
50319;SDS011;36226;53.464;9.852;2023-04-15T17:15:55;13.65;;;9.45;;
50319;SDS011;36226;53.464;9.852;2023-04-15T17:18:21;15.00;;;10.23;;
50319;SDS011;36226;53.464;9.852;2023-04-15T17:20:46;15.75;;;10.40;;
50319;SDS011;36226;53.464;9.852;2023-04-15T17:23:11;14.65;;;10.07;;
50319;SDS011;36226;53.464;9.852;2023-04-15T17:25:37;15.82;;;9.95;;
50319;SDS011;36226;53.464;9.852;2023-04-15T17:28:02;14.38;;;10.20;;
50319;SDS011;36226;53.464;9.852;2023-04-15T17:30:28;16.15;;;10.35;;
50319;SDS011;36226;53.464;9.852;2023-04-15T17:32:53;14.20;;;10.75;;
50319;SDS011;36226;53.464;9.852;2023-04-15T17:35:18;17.85;;;12.07;;
50319;SDS011;36226;53.464;9.852;2023-04-15T17:37:44;16.77;;;11.02;;
50319;SDS011;36226;53.464;9.852;2023-04-15T17:40:10;19.67;;;11.40;;
50319;SDS011;36226;53.464;9.852;2023-04-15T17:42:39;18.88;;;12.05;;
50319;SDS011;36226;53.464;9.852;2023-04-15T17:45:05;16.92;;;11.38;;
50319;SDS011;36226;53.464;9.852;2023-04-15T17:47:31;17.17;;;11.95;;
50319;SDS011;36226;53.464;9.852;2023-04-15T17:49:56;16.13;;;11.43;;
50319;SDS011;36226;53.464;9.852;2023-04-15T17:52:21;16.20;;;12.68;;
50319;SDS011;36226;53.464;9.852;2023-04-15T17:54:47;20.95;;;13.23;;
50319;SDS011;36226;53.464;9.852;2023-04-15T17:57:13;23.92;;;15.00;;
50319;SDS011;36226;53.464;9.852;2023-04-15T17:59:38;17.83;;;12.57;;
50319;SDS011;36226;53.464;9.852;2023-04-15T18:02:07;22.98;;;14.45;;
50319;SDS011;36226;53.464;9.852;2023-04-15T18:10:57;20.77;;;13.57;;
50319;SDS011;36226;53.464;9.852;2023-04-15T18:17:47;20.38;;;13.63;;
50319;SDS011;36226;53.464;9.852;2023-04-15T18:27:35;22.17;;;14.40;;
50319;SDS011;36226;53.464;9.852;2023-04-15T18:47:00;19.38;;;13.65;;
50319;SDS011;36226;53.464;9.852;2023-04-15T18:49:39;21.15;;;13.48;;
50319;SDS011;36226;53.464;9.852;2023-04-15T18:53:03;20.90;;;13.43;;
50319;SDS011;36226;53.464;9.852;2023-04-15T19:16:35;24.65;;;13.88;;
50319;SDS011;36226;53.464;9.852;2023-04-15T19:50:01;22.15;;;13.68;;
50319;SDS011;36226;53.464;9.852;2023-04-15T19:52:26;22.90;;;13.20;;
50319;SDS011;36226;53.464;9.852;2023-04-15T19:54:52;21.90;;;14.15;;
50319;SDS011;36226;53.464;9.852;2023-04-15T19:57:17;19.08;;;12.95;;
50319;SDS011;36226;53.464;9.852;2023-04-15T19:59:42;23.58;;;13.40;;
50319;SDS011;36226;53.464;9.852;2023-04-15T20:02:08;22.70;;;14.00;;
50319;SDS011;36226;53.464;9.852;2023-04-15T20:04:33;20.75;;;13.55;;
50319;SDS011;36226;53.464;9.852;2023-04-15T20:06:58;20.13;;;12.82;;
50319;SDS011;36226;53.464;9.852;2023-04-15T20:09:24;23.40;;;13.15;;
50319;SDS011;36226;53.464;9.852;2023-04-15T20:11:50;20.30;;;13.57;;
50319;SDS011;36226;53.464;9.852;2023-04-15T20:14:15;24.48;;;13.20;;
50319;SDS011;36226;53.464;9.852;2023-04-15T20:16:41;24.50;;;13.40;;
50319;SDS011;36226;53.464;9.852;2023-04-15T20:19:07;25.25;;;13.18;;
50319;SDS011;36226;53.464;9.852;2023-04-15T20:21:36;19.90;;;12.82;;
50319;SDS011;36226;53.464;9.852;2023-04-15T20:24:02;21.10;;;13.30;;
50319;SDS011;36226;53.464;9.852;2023-04-15T20:26:28;20.20;;;13.13;;
50319;SDS011;36226;53.464;9.852;2023-04-15T20:28:54;20.58;;;13.02;;
50319;SDS011;36226;53.464;9.852;2023-04-15T20:31:20;23.02;;;13.40;;
50319;SDS011;36226;53.464;9.852;2023-04-15T20:33:45;21.67;;;13.63;;
50319;SDS011;36226;53.464;9.852;2023-04-15T20:36:11;23.65;;;13.15;;
50319;SDS011;36226;53.464;9.852;2023-04-15T20:38:36;20.67;;;13.15;;
50319;SDS011;36226;53.464;9.852;2023-04-15T20:41:01;23.75;;;13.75;;
50319;SDS011;36226;53.464;9.852;2023-04-15T20:43:27;21.05;;;12.23;;
50319;SDS011;36226;53.464;9.852;2023-04-15T20:45:53;19.63;;;12.32;;
50319;SDS011;36226;53.464;9.852;2023-04-15T20:48:19;19.33;;;12.90;;
50319;SDS011;36226;53.464;9.852;2023-04-15T20:50:45;23.10;;;13.30;;
50319;SDS011;36226;53.464;9.852;2023-04-15T20:53:10;17.95;;;12.15;;
50319;SDS011;36226;53.464;9.852;2023-04-15T20:55:35;25.45;;;13.43;;
50319;SDS011;36226;53.464;9.852;2023-04-15T20:58:01;19.90;;;12.68;;
50319;SDS011;36226;53.464;9.852;2023-04-15T21:00:26;19.08;;;12.50;;
50319;SDS011;36226;53.464;9.852;2023-04-15T21:02:52;20.23;;;12.25;;
50319;SDS011;36226;53.464;9.852;2023-04-15T21:05:17;20.70;;;12.73;;
50319;SDS011;36226;53.464;9.852;2023-04-15T21:07:42;21.13;;;12.75;;
50319;SDS011;36226;53.464;9.852;2023-04-15T21:10:08;18.38;;;12.27;;
50319;SDS011;36226;53.464;9.852;2023-04-15T21:12:33;21.33;;;12.63;;
50319;SDS011;36226;53.464;9.852;2023-04-15T21:14:59;21.63;;;13.10;;
50319;SDS011;36226;53.464;9.852;2023-04-15T21:17:25;21.80;;;12.40;;
50319;SDS011;36226;53.464;9.852;2023-04-15T21:19:51;20.27;;;11.80;;
50319;SDS011;36226;53.464;9.852;2023-04-15T21:22:16;23.50;;;12.75;;
50319;SDS011;36226;53.464;9.852;2023-04-15T21:24:41;24.48;;;13.77;;
50319;SDS011;36226;53.464;9.852;2023-04-15T21:27:07;19.77;;;12.20;;
50319;SDS011;36226;53.464;9.852;2023-04-15T21:29:36;20.02;;;12.32;;
50319;SDS011;36226;53.464;9.852;2023-04-15T21:32:04;20.67;;;11.85;;
50319;SDS011;36226;53.464;9.852;2023-04-15T21:34:29;21.75;;;11.98;;
50319;SDS011;36226;53.464;9.852;2023-04-15T21:36:55;22.50;;;13.13;;
50319;SDS011;36226;53.464;9.852;2023-04-15T21:39:20;19.13;;;12.57;;
50319;SDS011;36226;53.464;9.852;2023-04-15T21:41:46;22.63;;;13.60;;
50319;SDS011;36226;53.464;9.852;2023-04-15T21:44:11;26.75;;;13.60;;
50319;SDS011;36226;53.464;9.852;2023-04-15T21:46:36;21.02;;;13.65;;
50319;SDS011;36226;53.464;9.852;2023-04-15T21:49:04;22.17;;;13.20;;
50319;SDS011;36226;53.464;9.852;2023-04-15T21:51:30;22.08;;;12.80;;
50319;SDS011;36226;53.464;9.852;2023-04-15T21:53:56;20.42;;;13.30;;
50319;SDS011;36226;53.464;9.852;2023-04-15T21:56:22;23.77;;;13.55;;
50319;SDS011;36226;53.464;9.852;2023-04-15T21:58:49;23.23;;;13.27;;
50319;SDS011;36226;53.464;9.852;2023-04-15T22:01:18;19.73;;;12.93;;
50319;SDS011;36226;53.464;9.852;2023-04-15T22:03:44;22.45;;;12.95;;
50319;SDS011;36226;53.464;9.852;2023-04-15T22:06:09;22.33;;;12.68;;
50319;SDS011;36226;53.464;9.852;2023-04-15T22:08:35;24.10;;;13.18;;
50319;SDS011;36226;53.464;9.852;2023-04-15T22:11:00;23.75;;;13.70;;
50319;SDS011;36226;53.464;9.852;2023-04-15T22:13:26;21.95;;;13.57;;
50319;SDS011;36226;53.464;9.852;2023-04-15T22:15:51;21.27;;;12.63;;
50319;SDS011;36226;53.464;9.852;2023-04-15T22:18:16;22.23;;;12.65;;
50319;SDS011;36226;53.464;9.852;2023-04-15T22:20:42;22.65;;;12.48;;
50319;SDS011;36226;53.464;9.852;2023-04-15T22:23:07;23.75;;;12.93;;
50319;SDS011;36226;53.464;9.852;2023-04-15T22:25:34;21.38;;;12.23;;
50319;SDS011;36226;53.464;9.852;2023-04-15T22:28:01;21.02;;;12.63;;
50319;SDS011;36226;53.464;9.852;2023-04-15T22:30:27;22.35;;;13.10;;
50319;SDS011;36226;53.464;9.852;2023-04-15T22:32:52;20.63;;;12.90;;
50319;SDS011;36226;53.464;9.852;2023-04-15T22:35:17;22.70;;;13.23;;
50319;SDS011;36226;53.464;9.852;2023-04-15T22:37:43;22.88;;;12.93;;
50319;SDS011;36226;53.464;9.852;2023-04-15T22:40:08;23.67;;;12.93;;
50319;SDS011;36226;53.464;9.852;2023-04-15T22:42:34;25.30;;;13.25;;
50319;SDS011;36226;53.464;9.852;2023-04-15T22:44:59;22.38;;;13.48;;
50319;SDS011;36226;53.464;9.852;2023-04-15T22:47:25;21.38;;;13.35;;
50319;SDS011;36226;53.464;9.852;2023-04-15T22:49:51;20.35;;;13.07;;
50319;SDS011;36226;53.464;9.852;2023-04-15T22:52:16;21.73;;;13.23;;
50319;SDS011;36226;53.464;9.852;2023-04-15T22:54:41;20.88;;;12.82;;
50319;SDS011;36226;53.464;9.852;2023-04-15T22:57:07;20.35;;;12.82;;
50319;SDS011;36226;53.464;9.852;2023-04-15T22:59:32;25.80;;;12.85;;
50319;SDS011;36226;53.464;9.852;2023-04-15T23:01:57;24.70;;;13.90;;
50319;SDS011;36226;53.464;9.852;2023-04-15T23:04:23;20.95;;;11.95;;
50319;SDS011;36226;53.464;9.852;2023-04-15T23:06:49;23.63;;;14.23;;
50319;SDS011;36226;53.464;9.852;2023-04-15T23:09:15;26.02;;;13.93;;
50319;SDS011;36226;53.464;9.852;2023-04-15T23:11:40;21.98;;;13.35;;
50319;SDS011;36226;53.464;9.852;2023-04-15T23:14:08;23.13;;;13.93;;
50319;SDS011;36226;53.464;9.852;2023-04-15T23:16:33;22.80;;;14.27;;
50319;SDS011;36226;53.464;9.852;2023-04-15T23:18:59;22.70;;;13.88;;
50319;SDS011;36226;53.464;9.852;2023-04-15T23:21:24;22.80;;;14.18;;
50319;SDS011;36226;53.464;9.852;2023-04-15T23:23:51;22.10;;;13.80;;
50319;SDS011;36226;53.464;9.852;2023-04-15T23:26:17;26.35;;;14.43;;
50319;SDS011;36226;53.464;9.852;2023-04-15T23:28:42;21.30;;;13.48;;
50319;SDS011;36226;53.464;9.852;2023-04-15T23:31:07;22.98;;;14.27;;
50319;SDS011;36226;53.464;9.852;2023-04-15T23:33:33;21.00;;;13.90;;
50319;SDS011;36226;53.464;9.852;2023-04-15T23:35:58;25.73;;;14.50;;
50319;SDS011;36226;53.464;9.852;2023-04-15T23:38:23;22.90;;;14.02;;
50319;SDS011;36226;53.464;9.852;2023-04-15T23:40:49;21.40;;;14.00;;
50319;SDS011;36226;53.464;9.852;2023-04-15T23:43:15;25.13;;;14.00;;
50319;SDS011;36226;53.464;9.852;2023-04-15T23:45:40;23.50;;;14.05;;
50319;SDS011;36226;53.464;9.852;2023-04-15T23:48:06;27.80;;;14.18;;
50319;SDS011;36226;53.464;9.852;2023-04-15T23:50:31;21.67;;;13.32;;
50319;SDS011;36226;53.464;9.852;2023-04-15T23:52:56;20.63;;;13.82;;
50319;SDS011;36226;53.464;9.852;2023-04-15T23:55:22;27.70;;;14.40;;
50319;SDS011;36226;53.464;9.852;2023-04-15T23:57:47;26.85;;;15.20;;
